createdAt,value
2019-04-22T00:01:31.204Z,40.83
2019-04-22T00:04:03.559Z,38.67
2019-04-22T00:06:49.743Z,38.88
2019-04-22T00:09:30.926Z,38.90
2019-04-22T00:12:11.232Z,35.88
2019-04-22T00:14:24.514Z,36.80
2019-04-22T00:17:08.625Z,37.23
2019-04-22T00:19:37.219Z,41.10
2019-04-22T00:22:08.079Z,37.15
2019-04-22T00:24:32.103Z,36.35
2019-04-22T00:27:03.928Z,37.65
2019-04-22T00:29:49.370Z,35.80
2019-04-22T00:32:16.535Z,36.98
2019-04-22T00:34:45.094Z,35.88
2019-04-22T00:39:46.481Z,39.15
2019-04-22T00:42:18.022Z,35.48
2019-04-22T00:44:45.216Z,33.38
2019-04-22T00:47:23.218Z,35.03
2019-04-22T00:52:22.326Z,35.85
2019-04-22T00:54:55.674Z,33.45
2019-04-22T00:57:21.511Z,40.30
2019-04-22T01:02:27.984Z,36.98
2019-04-22T01:05:04.018Z,35.70
2019-04-22T01:07:23.788Z,34.73
2019-04-22T01:09:58.992Z,37.53
2019-04-22T01:12:32.957Z,35.48
2019-04-22T01:15:01.011Z,36.98
2019-04-22T01:17:32.982Z,35.55
2019-04-22T01:20:13.189Z,35.28
2019-04-22T01:22:34.286Z,36.30
2019-04-22T01:25:03.675Z,38.67
2019-04-22T01:27:31.043Z,36.63
2019-04-22T01:29:59.676Z,35.83
2019-04-22T01:32:23.968Z,37.00
2019-04-22T01:35:04.402Z,37.30
2019-04-22T01:37:36.094Z,36.38
2019-04-22T01:40:17.754Z,35.88
2019-04-22T01:42:55.797Z,38.13
2019-04-22T01:45:19.340Z,37.93
2019-04-22T01:47:53.285Z,42.58
2019-04-22T01:50:21.424Z,45.75
2019-04-22T01:52:58.674Z,38.53
2019-04-22T01:55:32.409Z,44.63
2019-04-22T01:57:53.677Z,41.98
2019-04-22T02:00:15.256Z,42.75
2019-04-22T02:03:02.468Z,45.40
2019-04-22T02:05:28.746Z,40.65
2019-04-22T02:08:09.641Z,41.35
2019-04-22T02:10:42.141Z,45.10
2019-04-22T02:13:06.869Z,46.08
2019-04-22T02:15:45.871Z,46.70
2019-04-22T02:18:18.634Z,47.85
2019-04-22T02:20:37.267Z,48.30
2019-04-22T02:28:38.346Z,50.78
2019-04-22T02:31:20.108Z,49.05
2019-04-22T02:43:55.431Z,57.13
2019-04-22T02:51:24.342Z,54.67
2019-04-22T02:56:31.982Z,53.17
2019-04-22T02:59:03.864Z,62.03
2019-04-22T03:04:04.563Z,61.00
2019-04-22T03:09:08.410Z,60.00
2019-04-22T03:11:42.703Z,63.80
2019-04-22T03:19:17.418Z,67.30
2019-04-22T03:29:10.708Z,67.10
2019-04-22T03:32:12.860Z,74.85
2019-04-22T03:37:09.552Z,70.80
2019-04-22T03:44:31.714Z,73.87
2019-04-22T03:59:55.042Z,77.72
2019-04-22T04:14:47.151Z,82.20
2019-04-22T04:17:20.677Z,82.30
2019-04-22T04:20:02.624Z,80.22
2019-04-22T04:22:33.229Z,82.00
2019-04-22T04:25:19.265Z,82.05
2019-04-22T04:40:05.676Z,83.90
2019-04-22T04:47:42.138Z,86.08
2019-04-22T04:55:17.573Z,85.07
2019-04-22T05:02:46.629Z,85.15
2019-04-22T05:15:12.820Z,87.78
2019-04-22T05:20:24.118Z,87.02
2019-04-22T05:22:39.783Z,87.12
2019-04-22T05:25:14.630Z,85.07
2019-04-22T05:27:39.466Z,84.25
2019-04-22T05:30:23.565Z,83.82
2019-04-22T05:32:43.019Z,85.30
2019-04-22T05:35:25.133Z,84.13
2019-04-22T05:42:48.313Z,76.17
2019-04-22T05:47:51.822Z,72.08
2019-04-22T05:50:19.246Z,71.92
2019-04-22T05:52:51.313Z,73.97
2019-04-22T05:55:30.641Z,71.92
2019-04-22T05:57:59.711Z,67.03
2019-04-22T06:03:02.184Z,66.55
2019-04-22T06:05:38.437Z,66.55
2019-04-22T06:08:04.110Z,68.15
2019-04-22T06:10:41.107Z,70.17
2019-04-22T06:13:00.800Z,69.50
2019-04-22T06:15:34.416Z,67.70
2019-04-22T06:20:45.475Z,66.80
2019-04-22T06:23:18.647Z,65.40
2019-04-22T06:28:29.791Z,70.55
2019-04-22T06:33:22.548Z,70.17
2019-04-22T06:35:56.348Z,65.65
2019-04-22T06:41:07.358Z,72.37
2019-04-22T06:43:29.644Z,67.50
2019-04-22T06:46:02.420Z,65.62
2019-04-22T06:48:30.135Z,65.95
2019-04-22T06:51:00.539Z,70.28
2019-04-22T06:53:37.293Z,62.80
2019-04-22T06:56:06.680Z,64.62
2019-04-22T06:58:36.592Z,63.92
2019-04-22T07:01:09.239Z,64.10
2019-04-22T07:03:51.631Z,64.25
2019-04-22T07:06:12.735Z,63.38
2019-04-22T07:11:07.894Z,56.48
2019-04-22T07:13:48.579Z,53.78
2019-04-22T07:16:18.670Z,49.42
2019-04-22T07:19:02.199Z,42.88
2019-04-22T07:21:12.521Z,46.50
2019-04-22T07:24:03.018Z,44.13
2019-04-22T07:26:20.390Z,43.60
2019-04-22T07:28:50.544Z,42.33
2019-04-22T07:31:20.834Z,43.40
2019-04-22T07:33:51.149Z,41.58
2019-04-22T07:36:49.024Z,42.38
2019-04-22T07:38:57.239Z,41.50
2019-04-22T07:41:28.677Z,40.40
2019-04-22T07:44:13.839Z,38.28
2019-04-22T07:46:33.628Z,36.98
2019-04-22T07:49:02.095Z,42.17
2019-04-22T07:54:10.072Z,36.42
2019-04-22T07:56:37.981Z,34.13
2019-04-22T07:59:09.586Z,38.60
2019-04-22T08:01:36.234Z,37.63
2019-04-22T08:04:15.981Z,39.53
2019-04-22T08:06:46.367Z,31.37
2019-04-22T08:09:20.212Z,31.05
2019-04-22T08:11:51.231Z,40.17
2019-04-22T08:14:14.759Z,29.15
2019-04-22T08:16:51.903Z,29.27
2019-04-22T08:19:20.379Z,30.57
2019-04-22T08:21:52.085Z,29.52
2019-04-22T08:24:26.601Z,28.77
2019-04-22T08:26:56.079Z,34.25
2019-04-22T08:29:28.244Z,29.45
2019-04-22T08:31:56.588Z,31.77
2019-04-22T08:34:26.132Z,29.67
2019-04-22T08:37:24.189Z,36.17
2019-04-22T08:39:25.536Z,33.13
2019-04-22T08:42:11.503Z,29.50
2019-04-22T08:44:51.997Z,29.27
2019-04-22T08:49:40.910Z,26.73
2019-04-22T08:52:08.619Z,25.65
2019-04-22T08:54:41.010Z,28.52
2019-04-22T08:59:36.939Z,26.65
2019-04-22T09:02:12.080Z,25.17
2019-04-22T09:04:35.806Z,23.60
2019-04-22T09:07:28.824Z,26.25
2019-04-22T09:09:48.913Z,24.52
2019-04-22T09:12:21.279Z,24.35
2019-04-22T09:17:17.981Z,25.40
2019-04-22T09:19:47.762Z,25.32
2019-04-22T09:22:17.497Z,27.00
2019-04-22T09:24:46.981Z,24.92
2019-04-22T09:27:26.650Z,22.35
2019-04-22T09:29:56.395Z,20.92
2019-04-22T09:32:31.739Z,17.55
2019-04-22T09:34:54.548Z,20.65
2019-04-22T09:40:09.123Z,17.90
2019-04-22T09:42:37.154Z,20.00
2019-04-22T09:45:04.468Z,21.35
2019-04-22T09:47:34.515Z,18.07
2019-04-22T09:49:58.129Z,18.98
2019-04-22T09:52:36.952Z,16.07
2019-04-22T09:55:06.162Z,16.83
2019-04-22T09:57:33.914Z,17.90
2019-04-22T10:00:10.921Z,16.62
2019-04-22T10:02:42.664Z,16.97
2019-04-22T10:07:39.199Z,15.27
2019-04-22T10:10:15.111Z,17.52
2019-04-22T10:12:46.556Z,15.72
2019-04-22T10:15:13.690Z,12.75
2019-04-22T10:18:04.603Z,17.55
2019-04-22T10:20:20.593Z,14.20
2019-04-22T10:25:16.708Z,14.95
2019-04-22T10:27:55.303Z,15.68
2019-04-22T10:30:33.854Z,15.97
2019-04-22T10:32:53.865Z,17.95
2019-04-22T10:35:13.203Z,14.33
2019-04-22T10:37:38.760Z,16.90
2019-04-22T10:40:16.327Z,13.95
2019-04-22T10:42:47.378Z,14.03
2019-04-22T10:45:18.390Z,16.17
2019-04-22T10:47:48.072Z,14.20
2019-04-22T10:50:18.590Z,15.90
2019-04-22T10:52:47.975Z,13.25
2019-04-22T10:55:17.453Z,14.30
2019-04-22T10:57:48.506Z,12.40
2019-04-22T11:00:19.751Z,12.95
2019-04-22T11:02:49.838Z,13.78
2019-04-22T11:05:19.972Z,9.93
2019-04-22T11:07:56.781Z,13.70
2019-04-22T11:10:36.889Z,12.58
2019-04-22T11:12:51.937Z,9.75
2019-04-22T11:15:22.447Z,9.45
2019-04-22T11:17:53.554Z,10.18
2019-04-22T11:20:23.800Z,9.05
2019-04-22T11:22:53.240Z,7.40
2019-04-22T11:25:23.671Z,10.58
2019-04-22T11:27:53.692Z,8.78
2019-04-22T11:30:26.396Z,12.00
2019-04-22T11:32:55.979Z,9.35
2019-04-22T11:35:25.855Z,10.23
2019-04-22T11:37:55.277Z,12.37
2019-04-22T11:40:33.822Z,8.10
2019-04-22T11:42:59.602Z,8.43
2019-04-22T11:45:29.095Z,7.92
2019-04-22T11:47:59.541Z,10.93
2019-04-22T11:50:30.161Z,8.85
2019-04-22T11:53:00.780Z,8.83
2019-04-22T11:55:30.897Z,10.18
2019-04-22T11:58:01.049Z,8.33
2019-04-22T12:00:32.860Z,9.00
2019-04-22T12:03:03.185Z,9.93
2019-04-22T12:05:34.318Z,8.93
2019-04-22T12:08:04.946Z,9.15
2019-04-22T12:10:42.962Z,9.10
2019-04-22T12:13:06.305Z,7.95
2019-04-22T12:15:37.280Z,9.50
2019-04-22T12:18:07.358Z,15.93
2019-04-22T12:20:37.202Z,9.18
2019-04-22T12:23:07.414Z,9.58
2019-04-22T12:25:47.639Z,10.90
2019-04-22T12:28:11.023Z,8.28
2019-04-22T12:30:41.749Z,10.48
2019-04-22T12:33:14.532Z,11.35
2019-04-22T12:35:42.661Z,8.48
2019-04-22T12:38:13.122Z,20.27
2019-04-22T12:40:51.267Z,12.00
2019-04-22T12:43:18.516Z,14.77
2019-04-22T12:45:46.174Z,10.67
2019-04-22T12:48:17.075Z,11.60
2019-04-22T12:50:50.030Z,16.62
2019-04-22T12:53:23.552Z,10.50
2019-04-22T12:55:50.315Z,9.15
2019-04-22T12:58:20.097Z,12.78
2019-04-22T13:00:52.355Z,16.10
2019-04-22T13:03:20.512Z,9.20
2019-04-22T13:05:51.417Z,10.50
2019-04-22T13:08:21.023Z,10.67
2019-04-22T13:10:57.480Z,9.08
2019-04-22T13:13:22.939Z,10.05
2019-04-22T13:15:53.098Z,10.18
2019-04-22T13:18:31.686Z,8.68
2019-04-22T13:20:54.739Z,9.98
2019-04-22T13:23:25.564Z,15.58
2019-04-22T13:25:55.181Z,13.28
2019-04-22T13:28:25.192Z,10.95
2019-04-22T13:30:54.908Z,14.00
2019-04-22T13:33:25.054Z,9.13
2019-04-22T13:35:54.773Z,13.38
2019-04-22T13:38:24.993Z,12.03
2019-04-22T13:41:08.295Z,10.93
2019-04-22T13:43:27.020Z,13.43
2019-04-22T13:45:58.025Z,12.73
2019-04-22T13:48:46.267Z,13.93
2019-04-22T13:51:32.441Z,12.97
2019-04-22T13:56:19.151Z,14.87
2019-04-22T13:58:48.428Z,9.68
2019-04-22T14:01:06.987Z,12.13
2019-04-22T14:03:54.665Z,11.80
2019-04-22T14:06:25.047Z,9.25
2019-04-22T14:08:55.702Z,9.43
2019-04-22T14:11:32.697Z,9.25
2019-04-22T14:13:56.737Z,7.08
2019-04-22T14:16:27.006Z,10.10
2019-04-22T14:18:58.017Z,10.55
2019-04-22T14:21:27.604Z,9.95
2019-04-22T14:23:58.412Z,9.48
2019-04-22T14:26:41.318Z,8.40
2019-04-22T14:28:59.956Z,10.88
2019-04-22T14:31:30.774Z,15.08
2019-04-22T14:34:05.251Z,10.70
2019-04-22T14:36:35.247Z,14.18
2019-04-22T14:39:08.113Z,11.08
2019-04-22T14:41:55.334Z,11.25
2019-04-22T14:47:11.251Z,12.57
2019-04-22T14:49:40.226Z,10.90
2019-04-22T14:52:03.592Z,10.45
2019-04-22T14:54:31.059Z,11.63
2019-04-22T14:56:46.667Z,7.95
2019-04-22T14:59:16.756Z,8.23
2019-04-22T15:01:47.463Z,9.20
2019-04-22T15:04:17.323Z,7.72
2019-04-22T15:06:48.908Z,11.55
2019-04-22T15:09:17.805Z,24.47
2019-04-22T15:12:02.704Z,8.38
2019-04-22T15:14:19.418Z,9.35
2019-04-22T15:17:08.981Z,8.98
2019-04-22T15:19:56.052Z,10.72
2019-04-22T15:22:26.391Z,11.20
2019-04-22T15:24:56.677Z,9.33
2019-04-22T15:27:29.607Z,6.42
2019-04-22T15:29:57.359Z,9.48
2019-04-22T15:32:27.378Z,9.18
2019-04-22T15:34:57.330Z,8.65
2019-04-22T15:37:28.264Z,8.58
2019-04-22T15:39:58.593Z,7.97
2019-04-22T15:42:33.970Z,11.63
2019-04-22T15:44:59.996Z,9.98
2019-04-22T15:47:29.447Z,8.48
2019-04-22T15:50:00.285Z,14.35
2019-04-22T15:52:36.359Z,9.85
2019-04-22T15:55:00.816Z,8.43
2019-04-22T15:57:30.807Z,10.55
2019-04-22T16:00:14.345Z,7.83
2019-04-22T16:02:31.831Z,11.53
2019-04-22T16:05:02.855Z,8.18
2019-04-22T16:07:33.830Z,11.12
2019-04-22T16:10:05.873Z,9.80
2019-04-22T16:12:45.532Z,9.68
2019-04-22T16:15:10.713Z,9.75
2019-04-22T16:17:40.297Z,9.83
2019-04-22T16:20:13.093Z,9.93
2019-04-22T16:23:01.293Z,9.15
2019-04-22T16:25:47.375Z,10.25
2019-04-22T16:28:17.430Z,9.75
2019-04-22T16:30:47.074Z,9.15
2019-04-22T16:33:17.303Z,7.72
2019-04-22T16:35:46.876Z,12.20
2019-04-22T16:38:17.023Z,9.30
2019-04-22T16:40:48.462Z,11.78
2019-04-22T16:43:19.388Z,9.10
2019-04-22T16:45:49.637Z,10.78
2019-04-22T16:48:19.864Z,17.73
2019-04-22T16:50:52.164Z,13.53
2019-04-22T16:53:20.934Z,16.48
2019-04-22T16:55:50.795Z,9.63
2019-04-22T16:58:20.814Z,15.80
2019-04-22T17:00:50.499Z,10.05
2019-04-22T17:03:28.925Z,11.83
2019-04-22T17:06:12.162Z,10.13
2019-04-22T17:08:42.533Z,13.50
2019-04-22T17:11:12.074Z,15.72
2019-04-22T17:13:42.485Z,15.08
2019-04-22T17:16:13.851Z,13.22
2019-04-22T17:18:45.575Z,13.95
2019-04-22T17:21:17.576Z,10.75
2019-04-22T17:23:47.621Z,18.07
2019-04-22T17:26:17.488Z,12.13
2019-04-22T17:28:49.302Z,17.98
2019-04-22T17:31:20.631Z,18.60
2019-04-22T17:33:50.787Z,11.60
2019-04-22T17:36:20.421Z,12.60
2019-04-22T17:38:59.997Z,13.32
2019-04-22T17:41:34.421Z,10.00
2019-04-22T17:44:18.959Z,10.85
2019-04-22T17:46:41.723Z,10.72
2019-04-22T17:52:10.725Z,11.75
2019-04-22T17:54:42.132Z,14.07
2019-04-22T17:57:09.754Z,9.85
2019-04-22T17:59:41.775Z,11.68
2019-04-22T18:02:09.762Z,8.15
2019-04-22T18:04:29.105Z,10.70
2019-04-22T18:07:24.785Z,10.15
2019-04-22T18:12:27.210Z,16.57
2019-04-22T18:14:52.874Z,10.13
2019-04-22T18:17:23.399Z,13.45
2019-04-22T18:19:51.942Z,13.62
2019-04-22T18:22:19.948Z,12.73
2019-04-22T18:24:54.148Z,11.57
2019-04-22T18:29:59.138Z,9.75
2019-04-22T18:32:24.179Z,9.05
2019-04-22T18:34:54.191Z,10.88
2019-04-22T18:37:31.404Z,10.98
2019-04-22T18:40:08.272Z,8.83
2019-04-22T18:42:31.338Z,11.68
2019-04-22T18:45:26.017Z,13.43
2019-04-22T18:47:38.765Z,9.43
2019-04-22T18:50:08.792Z,9.00
2019-04-22T18:52:48.721Z,9.43
2019-04-22T18:55:22.602Z,11.33
2019-04-22T18:58:00.858Z,10.85
2019-04-22T19:00:18.092Z,8.78
2019-04-22T19:02:55.806Z,10.98
2019-04-22T19:05:35.903Z,10.35
2019-04-22T19:08:18.420Z,9.03
2019-04-22T19:10:54.113Z,9.10
2019-04-22T19:13:47.350Z,9.43
2019-04-22T19:15:54.201Z,9.43
2019-04-22T19:18:25.650Z,9.15
2019-04-22T19:20:57.861Z,11.25
2019-04-22T19:23:28.480Z,7.47
2019-04-22T19:25:51.176Z,12.28
2019-04-22T19:28:40.408Z,11.35
2019-04-22T19:31:02.551Z,8.15
2019-04-22T19:33:38.211Z,6.95
2019-04-22T19:36:04.991Z,8.63
2019-04-22T19:38:25.633Z,11.97
2019-04-22T19:43:38.958Z,8.48
2019-04-22T19:46:08.951Z,9.53
2019-04-22T19:48:53.115Z,12.25
2019-04-22T19:51:28.002Z,8.85
2019-04-22T19:53:42.273Z,7.83
2019-04-22T19:56:07.201Z,8.28
2019-04-22T19:58:38.550Z,8.65
2019-04-22T20:01:16.436Z,7.03
2019-04-22T20:04:12.096Z,10.00
2019-04-22T20:06:45.577Z,8.13
2019-04-22T20:09:22.503Z,10.65
2019-04-22T20:11:45.132Z,6.17
2019-04-22T20:14:16.794Z,7.75
2019-04-22T20:16:43.872Z,10.00
2019-04-22T20:19:25.224Z,10.65
2019-04-22T20:21:51.607Z,5.87
2019-04-22T20:24:11.707Z,9.13
2019-04-22T20:26:56.779Z,8.05
2019-04-22T20:29:30.964Z,9.88
2019-04-22T20:31:59.094Z,7.45
2019-04-22T20:34:32.222Z,8.40
2019-04-22T20:37:03.640Z,6.67
2019-04-22T20:39:33.441Z,7.55
2019-04-22T20:42:16.450Z,12.37
2019-04-22T20:44:39.544Z,8.03
2019-04-22T20:47:04.624Z,8.30
2019-04-22T20:49:38.266Z,9.90
2019-04-22T20:52:13.810Z,7.40
2019-04-22T20:54:40.622Z,8.23
2019-04-22T20:57:07.434Z,12.68
2019-04-22T20:59:38.981Z,8.95
2019-04-22T21:02:07.958Z,9.98
2019-04-22T21:04:35.950Z,7.45
2019-04-22T21:07:09.524Z,8.78
2019-04-22T21:09:43.097Z,8.48
2019-04-22T21:12:13.813Z,8.08
2019-04-22T21:14:47.140Z,10.45
2019-04-22T21:17:18.507Z,9.43
2019-04-22T21:19:54.709Z,11.38
2019-04-22T21:22:24.483Z,9.43
2019-04-22T21:24:48.980Z,9.33
2019-04-22T21:27:32.497Z,10.13
2019-04-22T21:29:49.466Z,9.93
2019-04-22T21:32:29.679Z,8.38
2019-04-22T21:35:07.700Z,10.72
2019-04-22T21:37:34.662Z,9.58
2019-04-22T21:39:56.640Z,11.25
2019-04-22T21:42:38.736Z,11.10
2019-04-22T21:45:00.391Z,8.68
2019-04-22T21:47:48.764Z,9.03
2019-04-22T21:50:21.491Z,9.90
2019-04-22T21:52:35.516Z,8.65
2019-04-22T21:55:13.108Z,10.53
2019-04-22T21:57:57.721Z,10.15
2019-04-22T22:00:31.106Z,10.88
2019-04-22T22:02:59.128Z,10.58
2019-04-22T22:05:20.075Z,13.93
2019-04-22T22:07:48.104Z,9.40
2019-04-22T22:10:29.478Z,10.35
2019-04-22T22:13:00.787Z,8.03
2019-04-22T22:15:31.742Z,11.03
2019-04-22T22:17:55.464Z,9.20
2019-04-22T22:20:30.983Z,10.90
2019-04-22T22:23:12.957Z,10.45
2019-04-22T22:25:33.702Z,7.87
2019-04-22T22:28:07.690Z,7.03
2019-04-22T22:30:47.638Z,8.13
2019-04-22T22:33:10.467Z,8.35
2019-04-22T22:35:39.346Z,10.18
2019-04-22T22:38:09.380Z,10.48
2019-04-22T22:40:26.324Z,9.53
2019-04-22T22:42:53.965Z,9.10
2019-04-22T22:45:33.855Z,8.38
2019-04-22T22:48:21.858Z,7.40
2019-04-22T22:50:42.823Z,10.72
2019-04-22T22:53:31.439Z,6.90
2019-04-22T22:55:46.391Z,10.63
2019-04-22T22:58:24.147Z,10.58
2019-04-22T23:00:44.084Z,7.20
2019-04-22T23:03:40.281Z,12.35
2019-04-22T23:06:00.142Z,5.87
2019-04-22T23:08:29.776Z,13.60
2019-04-22T23:11:03.523Z,9.33
2019-04-22T23:13:31.561Z,5.37
2019-04-22T23:15:50.715Z,14.85
2019-04-22T23:18:10.034Z,6.17
2019-04-22T23:20:45.599Z,6.50
2019-04-22T23:23:33.392Z,6.50
2019-04-22T23:26:07.444Z,10.82
2019-04-22T23:28:29.614Z,8.33
2019-04-22T23:31:20.700Z,6.53
2019-04-22T23:34:01.485Z,9.45
2019-04-22T23:36:25.093Z,5.95
2019-04-22T23:39:14.480Z,9.15
2019-04-22T23:44:14.132Z,8.63
2019-04-22T23:46:37.922Z,8.88
2019-04-22T23:51:51.649Z,5.95
2019-04-22T23:54:13.211Z,9.50
2019-04-22T23:56:43.539Z,7.87
2019-04-22T23:59:48.875Z,5.78
